sensor_id;sensor_type;location;lat;lon;timestamp;pressure;altitude;pressure_sealevel;temperature;humidity
49397;BME280;35615;41.410;2.194;2023-04-08T00:00:44;101548.25;;;18.94;33.64
49397;BME280;35615;41.410;2.194;2023-04-08T00:03:12;101556.06;;;18.91;33.63
49397;BME280;35615;41.410;2.194;2023-04-08T00:05:39;101556.06;;;18.90;33.51
49397;BME280;35615;41.410;2.194;2023-04-08T00:08:07;101557.75;;;18.86;33.57
49397;BME280;35615;41.410;2.194;2023-04-08T00:10:34;101560.41;;;18.89;33.49
49397;BME280;35615;41.410;2.194;2023-04-08T00:13:02;101564.72;;;18.85;32.88
49397;BME280;35615;41.410;2.194;2023-04-08T00:15:29;101558.59;;;18.85;33.17
49397;BME280;35615;41.410;2.194;2023-04-08T00:17:56;101560.25;;;18.80;33.13
49397;BME280;35615;41.410;2.194;2023-04-08T00:20:26;101566.31;;;18.77;33.05
49397;BME280;35615;41.410;2.194;2023-04-08T00:22:56;101562.78;;;18.75;33.38
49397;BME280;35615;41.410;2.194;2023-04-08T00:25:30;101561.88;;;18.73;33.36
49397;BME280;35615;41.410;2.194;2023-04-08T00:27:57;101563.47;;;18.65;33.03
49397;BME280;35615;41.410;2.194;2023-04-08T00:30:29;101558.38;;;18.73;33.18
49397;BME280;35615;41.410;2.194;2023-04-08T00:32:56;101566.97;;;18.66;33.27
49397;BME280;35615;41.410;2.194;2023-04-08T00:35:24;101566.13;;;18.67;33.22
49397;BME280;35615;41.410;2.194;2023-04-08T00:37:53;101566.16;;;18.68;33.53
49397;BME280;35615;41.410;2.194;2023-04-08T00:40:33;101565.09;;;18.62;33.23
49397;BME280;35615;41.410;2.194;2023-04-08T00:43:01;101557.22;;;18.60;33.65
49397;BME280;35615;41.410;2.194;2023-04-08T00:45:28;101558.09;;;18.59;33.76
49397;BME280;35615;41.410;2.194;2023-04-08T00:48:02;101558.97;;;18.59;33.71
49397;BME280;35615;41.410;2.194;2023-04-08T00:50:31;101553.72;;;18.58;33.36
49397;BME280;35615;41.410;2.194;2023-04-08T00:52:59;101556.31;;;18.56;33.69
49397;BME280;35615;41.410;2.194;2023-04-08T00:55:27;101550.19;;;18.56;33.98
49397;BME280;35615;41.410;2.194;2023-04-08T00:58:04;101545.69;;;18.49;33.40
49397;BME280;35615;41.410;2.194;2023-04-08T01:00:36;101543.09;;;18.50;33.89
49397;BME280;35615;41.410;2.194;2023-04-08T01:03:16;101538.72;;;18.49;33.93
49397;BME280;35615;41.410;2.194;2023-04-08T01:05:55;101542.16;;;18.45;33.80
49397;BME280;35615;41.410;2.194;2023-04-08T01:08:29;101544.75;;;18.44;33.99
49397;BME280;35615;41.410;2.194;2023-04-08T01:11:01;101539.47;;;18.42;34.14
49397;BME280;35615;41.410;2.194;2023-04-08T01:13:39;101538.66;;;18.45;34.19
49397;BME280;35615;41.410;2.194;2023-04-08T01:16:21;101536.84;;;18.41;34.37
49397;BME280;35615;41.410;2.194;2023-04-08T01:18:51;101538.53;;;18.39;34.16
49397;BME280;35615;41.410;2.194;2023-04-08T01:21:22;101541.94;;;18.35;34.29
49397;BME280;35615;41.410;2.194;2023-04-08T01:24:19;101540.22;;;18.35;34.38
49397;BME280;35615;41.410;2.194;2023-04-08T01:26:49;101533.25;;;18.36;34.67
49397;BME280;35615;41.410;2.194;2023-04-08T01:29:18;101533.16;;;18.31;34.86
49397;BME280;35615;41.410;2.194;2023-04-08T01:31:49;101531.44;;;18.32;34.92
49397;BME280;35615;41.410;2.194;2023-04-08T01:34:18;101530.53;;;18.29;34.92
49397;BME280;35615;41.410;2.194;2023-04-08T01:36:51;101544.44;;;18.28;35.58
49397;BME280;35615;41.410;2.194;2023-04-08T01:39:20;101536.47;;;18.22;35.22
49397;BME280;35615;41.410;2.194;2023-04-08T01:41:47;101537.34;;;18.21;35.54
49397;BME280;35615;41.410;2.194;2023-04-08T01:44:16;101539.75;;;18.12;35.86
49397;BME280;35615;41.410;2.194;2023-04-08T01:46:48;101544.19;;;18.16;35.84
49397;BME280;35615;41.410;2.194;2023-04-08T01:49:16;101539.75;;;18.12;36.04
49397;BME280;35615;41.410;2.194;2023-04-08T01:51:45;101541.53;;;18.13;36.05
49397;BME280;35615;41.410;2.194;2023-04-08T01:54:13;101545.88;;;18.13;36.13
49397;BME280;35615;41.410;2.194;2023-04-08T01:56:41;101544.13;;;18.13;35.95
49397;BME280;35615;41.410;2.194;2023-04-08T02:02:47;101538.84;;;18.10;36.10
49397;BME280;35615;41.410;2.194;2023-04-08T02:05:18;101543.22;;;18.11;36.13
49397;BME280;35615;41.410;2.194;2023-04-08T02:07:52;101544.06;;;18.09;36.12
49397;BME280;35615;41.410;2.194;2023-04-08T02:10:19;101537.09;;;18.09;36.04
49397;BME280;35615;41.410;2.194;2023-04-08T02:12:51;101544.94;;;18.09;36.11
49397;BME280;35615;41.410;2.194;2023-04-08T02:15:20;101537.06;;;18.08;35.99
49397;BME280;35615;41.410;2.194;2023-04-08T02:17:57;101534.34;;;18.03;36.30
49397;BME280;35615;41.410;2.194;2023-04-08T02:20:37;101549.09;;;17.99;36.24
49397;BME280;35615;41.410;2.194;2023-04-08T02:23:13;101546.34;;;17.93;36.60
49397;BME280;35615;41.410;2.194;2023-04-08T02:25:44;101547.13;;;17.88;36.41
49397;BME280;35615;41.410;2.194;2023-04-08T02:28:16;101541.88;;;17.88;36.26
49397;BME280;35615;41.410;2.194;2023-04-08T02:30:50;101544.38;;;17.83;36.36
49397;BME280;35615;41.410;2.194;2023-04-08T02:33:20;101535.75;;;17.86;36.10
49397;BME280;35615;41.410;2.194;2023-04-08T02:35:51;101537.38;;;17.81;36.23
49397;BME280;35615;41.410;2.194;2023-04-08T02:38:22;101536.47;;;17.79;36.68
49397;BME280;35615;41.410;2.194;2023-04-08T02:40:50;101536.50;;;17.80;36.38
49397;BME280;35615;41.410;2.194;2023-04-08T02:43:26;101533.81;;;17.77;36.36
49397;BME280;35615;41.410;2.194;2023-04-08T02:46:12;101545.13;;;17.76;36.39
49397;BME280;35615;41.410;2.194;2023-04-08T02:48:39;101548.56;;;17.74;36.16
49397;BME280;35615;41.410;2.194;2023-04-08T02:51:11;101547.66;;;17.73;36.15
49397;BME280;35615;41.410;2.194;2023-04-08T02:53:41;101549.19;;;17.63;36.18
49397;BME280;35615;41.410;2.194;2023-04-08T02:56:11;101551.78;;;17.63;36.10
49397;BME280;35615;41.410;2.194;2023-04-08T02:58:42;101559.56;;;17.62;36.30
49397;BME280;35615;41.410;2.194;2023-04-08T03:01:19;101559.47;;;17.57;36.31
49397;BME280;35615;41.410;2.194;2023-04-08T03:03:49;101564.44;;;17.45;36.54
49397;BME280;35615;41.410;2.194;2023-04-08T03:06:17;101552.41;;;17.52;36.32
49397;BME280;35615;41.410;2.194;2023-04-08T03:08:47;101553.19;;;17.49;36.37
49397;BME280;35615;41.410;2.194;2023-04-08T03:11:14;101548.56;;;17.37;36.59
49397;BME280;35615;41.410;2.194;2023-04-08T03:13:46;101542.41;;;17.34;36.66
49397;BME280;35615;41.410;2.194;2023-04-08T03:16:19;101546.50;;;17.23;36.51
49397;BME280;35615;41.410;2.194;2023-04-08T03:18:48;101546.56;;;17.26;36.70
49397;BME280;35615;41.410;2.194;2023-04-08T03:21:22;101549.13;;;17.24;36.94
49397;BME280;35615;41.410;2.194;2023-04-08T03:23:51;101546.59;;;17.27;36.71
49397;BME280;35615;41.410;2.194;2023-04-08T03:26:26;101546.50;;;17.23;36.89
49397;BME280;35615;41.410;2.194;2023-04-08T03:28:53;101551.72;;;17.23;37.01
49397;BME280;35615;41.410;2.194;2023-04-08T03:31:24;101547.41;;;17.25;36.83
49397;BME280;35615;41.410;2.194;2023-04-08T03:33:52;101543.19;;;17.30;36.92
49397;BME280;35615;41.410;2.194;2023-04-08T03:36:24;101543.13;;;17.28;37.39
49397;BME280;35615;41.410;2.194;2023-04-08T03:38:58;101544.09;;;17.32;37.19
49397;BME280;35615;41.410;2.194;2023-04-08T03:41:26;101549.13;;;17.24;37.32
49397;BME280;35615;41.410;2.194;2023-04-08T03:43:56;101545.69;;;17.27;37.56
49397;BME280;35615;41.410;2.194;2023-04-08T03:46:29;101551.03;;;17.30;37.39
49397;BME280;35615;41.410;2.194;2023-04-08T03:48:56;101556.88;;;17.20;37.49
49397;BME280;35615;41.410;2.194;2023-04-08T03:51:26;101557.59;;;17.14;37.53
49397;BME280;35615;41.410;2.194;2023-04-08T03:53:56;101559.31;;;17.13;37.86
49397;BME280;35615;41.410;2.194;2023-04-08T03:56:24;101553.22;;;17.13;37.49
49397;BME280;35615;41.410;2.194;2023-04-08T03:58:53;101553.31;;;17.18;37.61
49397;BME280;35615;41.410;2.194;2023-04-08T04:01:27;101563.72;;;17.16;37.26
49397;BME280;35615;41.410;2.194;2023-04-08T04:03:55;101567.06;;;17.09;37.89
49397;BME280;35615;41.410;2.194;2023-04-08T04:06:22;101561.72;;;17.06;37.82
49397;BME280;35615;41.410;2.194;2023-04-08T04:08:52;101566.06;;;17.05;38.16
49397;BME280;35615;41.410;2.194;2023-04-08T04:11:20;101561.66;;;17.03;37.97
49397;BME280;35615;41.410;2.194;2023-04-08T04:13:48;101563.31;;;16.99;37.93
49397;BME280;35615;41.410;2.194;2023-04-08T04:16:15;101557.91;;;16.92;38.31
49397;BME280;35615;41.410;2.194;2023-04-08T04:18:42;101558.69;;;16.88;38.01
49397;BME280;35615;41.410;2.194;2023-04-08T04:21:10;101558.59;;;16.84;38.29
49397;BME280;35615;41.410;2.194;2023-04-08T04:23:39;101563.06;;;16.89;38.04
49397;BME280;35615;41.410;2.194;2023-04-08T04:26:11;101555.22;;;16.89;38.20
49397;BME280;35615;41.410;2.194;2023-04-08T04:28:41;101565.69;;;16.90;38.31
49397;BME280;35615;41.410;2.194;2023-04-08T04:31:21;101555.25;;;16.90;38.31
49397;BME280;35615;41.410;2.194;2023-04-08T04:33:54;101552.59;;;16.87;38.51
49397;BME280;35615;41.410;2.194;2023-04-08T04:36:22;101556.06;;;16.88;38.44
49397;BME280;35615;41.410;2.194;2023-04-08T04:38:52;101550.81;;;16.86;38.38
49397;BME280;35615;41.410;2.194;2023-04-08T04:41:22;101550.94;;;16.91;38.59
49397;BME280;35615;41.410;2.194;2023-04-08T04:43:49;101551.03;;;16.95;38.44
49397;BME280;35615;41.410;2.194;2023-04-08T04:46:17;101547.47;;;16.92;38.82
49397;BME280;35615;41.410;2.194;2023-04-08T04:48:46;101556.19;;;16.92;39.15
49397;BME280;35615;41.410;2.194;2023-04-08T04:51:14;101551.75;;;16.88;38.86
49397;BME280;35615;41.410;2.194;2023-04-08T04:53:41;101556.03;;;16.86;39.06
49397;BME280;35615;41.410;2.194;2023-04-08T04:56:09;101557.84;;;16.89;38.93
49397;BME280;35615;41.410;2.194;2023-04-08T04:58:36;101554.47;;;16.94;39.06
49397;BME280;35615;41.410;2.194;2023-04-08T05:01:04;101556.41;;;17.01;39.07
49397;BME280;35615;41.410;2.194;2023-04-08T05:03:33;101560.59;;;16.95;39.45
49397;BME280;35615;41.410;2.194;2023-04-08T05:06:01;101558.84;;;16.95;39.21
49397;BME280;35615;41.410;2.194;2023-04-08T05:08:28;101557.13;;;16.96;39.21
49397;BME280;35615;41.410;2.194;2023-04-08T05:11:03;101562.41;;;16.97;39.44
49397;BME280;35615;41.410;2.194;2023-04-08T05:13:34;101558.84;;;16.95;39.48
49397;BME280;35615;41.410;2.194;2023-04-08T05:16:02;101561.47;;;16.95;39.42
49397;BME280;35615;41.410;2.194;2023-04-08T05:18:31;101564.03;;;16.94;39.52
49397;BME280;35615;41.410;2.194;2023-04-08T05:21:01;101562.31;;;16.94;39.50
49397;BME280;35615;41.410;2.194;2023-04-08T05:23:33;101563.16;;;16.93;39.63
49397;BME280;35615;41.410;2.194;2023-04-08T05:26:04;101564.00;;;16.92;39.70
49397;BME280;35615;41.410;2.194;2023-04-08T05:28:32;101565.81;;;16.95;40.05
49397;BME280;35615;41.410;2.194;2023-04-08T05:30:59;101571.84;;;16.92;39.85
49397;BME280;35615;41.410;2.194;2023-04-08T05:33:30;101571.88;;;16.94;39.88
49397;BME280;35615;41.410;2.194;2023-04-08T05:36:04;101574.50;;;16.95;40.00
49397;BME280;35615;41.410;2.194;2023-04-08T05:38:38;101578.00;;;16.96;39.89
49397;BME280;35615;41.410;2.194;2023-04-08T05:41:09;101581.59;;;16.99;40.08
49397;BME280;35615;41.410;2.194;2023-04-08T05:43:56;101579.84;;;16.98;39.82
49397;BME280;35615;41.410;2.194;2023-04-08T05:46:27;101581.56;;;16.98;40.02
49397;BME280;35615;41.410;2.194;2023-04-08T05:49:10;101582.31;;;16.94;40.41
49397;BME280;35615;41.410;2.194;2023-04-08T05:51:38;101582.50;;;17.01;40.12
49397;BME280;35615;41.410;2.194;2023-04-08T05:54:05;101586.75;;;16.96;40.17
49397;BME280;35615;41.410;2.194;2023-04-08T05:56:34;101591.19;;;17.00;40.05
49397;BME280;35615;41.410;2.194;2023-04-08T05:59:07;101588.59;;;17.00;40.20
49397;BME280;35615;41.410;2.194;2023-04-08T06:01:35;101596.44;;;17.02;39.94
49397;BME280;35615;41.410;2.194;2023-04-08T06:04:07;101608.38;;;16.92;40.15
49397;BME280;35615;41.410;2.194;2023-04-08T06:06:43;101604.34;;;17.05;40.03
49397;BME280;35615;41.410;2.194;2023-04-08T06:09:18;101612.00;;;16.97;40.09
49397;BME280;35615;41.410;2.194;2023-04-08T06:11:51;101609.50;;;17.02;40.07
49397;BME280;35615;41.410;2.194;2023-04-08T06:14:19;101605.09;;;16.99;39.94
49397;BME280;35615;41.410;2.194;2023-04-08T06:16:47;101615.38;;;16.93;40.17
49397;BME280;35615;41.410;2.194;2023-04-08T06:19:17;101618.19;;;17.01;40.14
49397;BME280;35615;41.410;2.194;2023-04-08T06:21:47;101618.31;;;17.07;39.82
49397;BME280;35615;41.410;2.194;2023-04-08T06:24:23;101617.41;;;17.05;39.91
49397;BME280;35615;41.410;2.194;2023-04-08T06:26:59;101608.72;;;17.06;39.98
49397;BME280;35615;41.410;2.194;2023-04-08T06:29:29;101616.63;;;17.07;39.93
49397;BME280;35615;41.410;2.194;2023-04-08T06:32:03;101618.38;;;17.08;40.00
49397;BME280;35615;41.410;2.194;2023-04-08T06:34:33;101621.00;;;17.08;39.93
49397;BME280;35615;41.410;2.194;2023-04-08T06:37:14;101618.41;;;17.10;40.31
49397;BME280;35615;41.410;2.194;2023-04-08T06:39:45;101621.91;;;17.10;40.46
49397;BME280;35615;41.410;2.194;2023-04-08T06:42:33;101629.53;;;17.03;40.51
49397;BME280;35615;41.410;2.194;2023-04-08T06:45:34;101631.38;;;17.07;40.20
49397;BME280;35615;41.410;2.194;2023-04-08T06:48:19;101644.44;;;17.07;40.70
49397;BME280;35615;41.410;2.194;2023-04-08T06:51:05;101629.78;;;17.12;40.13
49397;BME280;35615;41.410;2.194;2023-04-08T06:53:37;101637.00;;;17.22;40.26
49397;BME280;35615;41.410;2.194;2023-04-08T06:56:08;101643.22;;;17.27;39.93
49397;BME280;35615;41.410;2.194;2023-04-08T06:58:42;101647.59;;;17.28;39.97
49397;BME280;35615;41.410;2.194;2023-04-08T07:01:12;101643.50;;;17.39;39.94
49397;BME280;35615;41.410;2.194;2023-04-08T07:03:43;101647.00;;;17.40;39.79
49397;BME280;35615;41.410;2.194;2023-04-08T07:06:11;101647.19;;;17.48;39.66
49397;BME280;35615;41.410;2.194;2023-04-08T07:08:38;101647.38;;;17.54;39.54
49397;BME280;35615;41.410;2.194;2023-04-08T07:11:09;101645.72;;;17.59;39.37
49397;BME280;35615;41.410;2.194;2023-04-08T07:13:37;101644.88;;;17.60;39.59
49397;BME280;35615;41.410;2.194;2023-04-08T07:16:07;101641.66;;;17.70;38.71
49397;BME280;35615;41.410;2.194;2023-04-08T07:18:37;101644.41;;;17.75;39.21
49397;BME280;35615;41.410;2.194;2023-04-08T07:21:08;101638.34;;;17.76;38.02
49397;BME280;35615;41.410;2.194;2023-04-08T07:23:38;101640.19;;;17.81;37.05
49397;BME280;35615;41.410;2.194;2023-04-08T07:26:06;101648.16;;;17.86;36.53
49397;BME280;35615;41.410;2.194;2023-04-08T07:28:33;101649.13;;;17.91;36.66
49397;BME280;35615;41.410;2.194;2023-04-08T07:31:15;101653.47;;;17.90;36.10
49397;BME280;35615;41.410;2.194;2023-04-08T07:33:48;101657.72;;;17.85;35.36
49397;BME280;35615;41.410;2.194;2023-04-08T07:36:28;101653.25;;;17.81;34.46
49397;BME280;35615;41.410;2.194;2023-04-08T07:39:01;101653.47;;;17.90;34.38
49397;BME280;35615;41.410;2.194;2023-04-08T07:41:32;101661.84;;;17.76;33.57
49397;BME280;35615;41.410;2.194;2023-04-08T07:44:15;101664.13;;;17.99;33.79
49397;BME280;35615;41.410;2.194;2023-04-08T07:46:59;101661.97;;;17.82;33.12
49397;BME280;35615;41.410;2.194;2023-04-08T07:49:34;101658.03;;;17.99;33.58
49397;BME280;35615;41.410;2.194;2023-04-08T07:52:09;101666.59;;;17.93;33.71
49397;BME280;35615;41.410;2.194;2023-04-08T07:54:41;101670.31;;;18.03;33.42
49397;BME280;35615;41.410;2.194;2023-04-08T07:57:11;101665.69;;;18.31;33.46
49397;BME280;35615;41.410;2.194;2023-04-08T07:59:41;101673.00;;;18.47;33.21
49397;BME280;35615;41.410;2.194;2023-04-08T08:02:17;101669.38;;;18.40;32.96
49397;BME280;35615;41.410;2.194;2023-04-08T08:04:56;101678.22;;;18.47;33.08
49397;BME280;35615;41.410;2.194;2023-04-08T08:07:30;101677.53;;;18.55;32.97
49397;BME280;35615;41.410;2.194;2023-04-08T08:10:23;101682.16;;;18.66;33.60
49397;BME280;35615;41.410;2.194;2023-04-08T08:12:51;101690.28;;;18.81;33.78
49397;BME280;35615;41.410;2.194;2023-04-08T08:15:22;101685.00;;;18.78;34.18
49397;BME280;35615;41.410;2.194;2023-04-08T08:17:53;101684.47;;;18.96;33.23
49397;BME280;35615;41.410;2.194;2023-04-08T08:20:25;101683.19;;;19.21;33.51
49397;BME280;35615;41.410;2.194;2023-04-08T08:22:58;101681.59;;;19.29;34.29
49397;BME280;35615;41.410;2.194;2023-04-08T08:25:25;101678.81;;;19.72;33.75
49397;BME280;35615;41.410;2.194;2023-04-08T08:27:57;101680.16;;;20.03;33.39
49397;BME280;35615;41.410;2.194;2023-04-08T08:30:24;101682.16;;;20.20;33.26
49397;BME280;35615;41.410;2.194;2023-04-08T08:32:55;101686.03;;;20.49;32.47
49397;BME280;35615;41.410;2.194;2023-04-08T08:35:31;101681.13;;;20.77;32.24
49397;BME280;35615;41.410;2.194;2023-04-08T08:37:59;101679.53;;;20.94;31.98
49397;BME280;35615;41.410;2.194;2023-04-08T08:40:40;101678.06;;;21.17;31.13
49397;BME280;35615;41.410;2.194;2023-04-08T08:43:10;101680.06;;;21.46;30.86
49397;BME280;35615;41.410;2.194;2023-04-08T08:45:46;101679.34;;;21.65;30.96
49397;BME280;35615;41.410;2.194;2023-04-08T08:48:17;101677.94;;;22.12;31.21
49397;BME280;35615;41.410;2.194;2023-04-08T08:50:45;101687.59;;;22.13;31.71
49397;BME280;35615;41.410;2.194;2023-04-08T08:53:16;101697.41;;;22.47;31.15
49397;BME280;35615;41.410;2.194;2023-04-08T08:55:45;101697.47;;;22.66;31.70
49397;BME280;35615;41.410;2.194;2023-04-08T08:58:15;101703.63;;;22.66;31.80
49397;BME280;35615;41.410;2.194;2023-04-08T09:00:43;101701.13;;;22.97;31.95
49397;BME280;35615;41.410;2.194;2023-04-08T09:03:19;101704.66;;;23.26;31.69
49397;BME280;35615;41.410;2.194;2023-04-08T09:05:58;101704.72;;;23.41;31.46
49397;BME280;35615;41.410;2.194;2023-04-08T09:08:34;101710.84;;;23.56;31.17
49397;BME280;35615;41.410;2.194;2023-04-08T09:13:47;101711.72;;;23.45;31.72
49397;BME280;35615;41.410;2.194;2023-04-08T09:19:10;101727.56;;;23.99;30.58
49397;BME280;35615;41.410;2.194;2023-04-08T09:21:43;101724.94;;;23.68;30.69
49397;BME280;35615;41.410;2.194;2023-04-08T09:24:28;101718.72;;;24.12;29.25
49397;BME280;35615;41.410;2.194;2023-04-08T09:26:59;101723.19;;;23.76;29.77
49397;BME280;35615;41.410;2.194;2023-04-08T09:29:27;101729.31;;;23.43;29.21
49397;BME280;35615;41.410;2.194;2023-04-08T09:32:04;101723.19;;;23.87;28.63
49397;BME280;35615;41.410;2.194;2023-04-08T09:34:48;101723.19;;;23.66;28.41
49397;BME280;35615;41.410;2.194;2023-04-08T09:37:21;101729.31;;;23.33;28.59
49397;BME280;35615;41.410;2.194;2023-04-08T09:39:51;101723.19;;;23.58;28.76
49397;BME280;35615;41.410;2.194;2023-04-08T09:42:20;101724.09;;;23.63;29.17
49397;BME280;35615;41.410;2.194;2023-04-08T09:44:50;101729.34;;;23.77;28.94
49397;BME280;35615;41.410;2.194;2023-04-08T09:47:24;101725.81;;;23.78;28.33
49397;BME280;35615;41.410;2.194;2023-04-08T09:50:01;101731.94;;;24.14;28.29
49397;BME280;35615;41.410;2.194;2023-04-08T09:52:45;101730.22;;;23.61;29.12
49397;BME280;35615;41.410;2.194;2023-04-08T09:55:20;101724.06;;;23.71;29.75
49397;BME280;35615;41.410;2.194;2023-04-08T09:58:07;101734.63;;;23.63;29.81
49397;BME280;35615;41.410;2.194;2023-04-08T10:00:40;101725.78;;;23.20;30.44
49397;BME280;35615;41.410;2.194;2023-04-08T10:03:39;101729.38;;;23.72;30.19
49397;BME280;35615;41.410;2.194;2023-04-08T10:06:07;101737.25;;;23.83;30.69
49397;BME280;35615;41.410;2.194;2023-04-08T10:08:36;101727.56;;;23.94;31.43
49397;BME280;35615;41.410;2.194;2023-04-08T10:11:04;101731.94;;;24.12;31.63
49397;BME280;35615;41.410;2.194;2023-04-08T10:13:32;101738.09;;;23.55;32.42
49397;BME280;35615;41.410;2.194;2023-04-08T10:16:19;101741.63;;;23.52;32.56
49397;BME280;35615;41.410;2.194;2023-04-08T10:18:48;101741.66;;;23.98;31.99
49397;BME280;35615;41.410;2.194;2023-04-08T10:21:38;101744.28;;;23.98;31.76
49397;BME280;35615;41.410;2.194;2023-04-08T10:24:09;101747.81;;;23.79;32.66
49397;BME280;35615;41.410;2.194;2023-04-08T10:26:44;101734.59;;;24.00;32.71
49397;BME280;35615;41.410;2.194;2023-04-08T10:31:48;101737.25;;;23.59;33.05
49397;BME280;35615;41.410;2.194;2023-04-08T10:34:20;101739.84;;;24.12;32.33
49397;BME280;35615;41.410;2.194;2023-04-08T10:37:03;101735.41;;;24.25;32.08
49397;BME280;35615;41.410;2.194;2023-04-08T10:39:31;101737.19;;;24.29;32.64
49397;BME280;35615;41.410;2.194;2023-04-08T10:42:00;101741.56;;;24.50;32.41
49397;BME280;35615;41.410;2.194;2023-04-08T10:44:35;101739.81;;;24.44;32.26
49397;BME280;35615;41.410;2.194;2023-04-08T10:47:03;101748.59;;;24.51;32.37
49397;BME280;35615;41.410;2.194;2023-04-08T10:49:33;101738.84;;;24.65;32.51
49397;BME280;35615;41.410;2.194;2023-04-08T10:52:07;101735.22;;;24.87;32.03
49397;BME280;35615;41.410;2.194;2023-04-08T10:54:36;101729.09;;;24.84;32.09
49397;BME280;35615;41.410;2.194;2023-04-08T10:57:04;101727.25;;;24.93;32.66
49397;BME280;35615;41.410;2.194;2023-04-08T10:59:33;101737.66;;;25.24;32.42
49397;BME280;35615;41.410;2.194;2023-04-08T11:02:03;101729.03;;;24.88;33.14
49397;BME280;35615;41.410;2.194;2023-04-08T11:04:31;101729.81;;;25.16;32.42
49397;BME280;35615;41.410;2.194;2023-04-08T11:06:58;101727.75;;;25.54;32.23
49397;BME280;35615;41.410;2.194;2023-04-08T11:09:26;101728.66;;;25.49;32.23
49397;BME280;35615;41.410;2.194;2023-04-08T11:11:53;101732.50;;;25.04;32.40
49397;BME280;35615;41.410;2.194;2023-04-08T11:14:22;101725.47;;;24.97;32.74
49397;BME280;35615;41.410;2.194;2023-04-08T11:16:51;101736.91;;;25.08;32.34
49397;BME280;35615;41.410;2.194;2023-04-08T11:19:19;101716.34;;;25.45;31.60
49397;BME280;35615;41.410;2.194;2023-04-08T11:21:49;101728.84;;;25.25;31.98
49397;BME280;35615;41.410;2.194;2023-04-08T11:24:25;101729.78;;;25.19;31.80
49397;BME280;35615;41.410;2.194;2023-04-08T11:26:56;101726.97;;;25.38;31.82
49397;BME280;35615;41.410;2.194;2023-04-08T11:29:34;101720.94;;;25.22;32.32
49397;BME280;35615;41.410;2.194;2023-04-08T11:32:13;101726.22;;;25.24;32.69
49397;BME280;35615;41.410;2.194;2023-04-08T11:34:40;101717.38;;;25.29;32.37
49397;BME280;35615;41.410;2.194;2023-04-08T11:37:18;101728.00;;;25.20;31.97
49397;BME280;35615;41.410;2.194;2023-04-08T11:39:49;101712.34;;;24.80;32.86
49397;BME280;35615;41.410;2.194;2023-04-08T11:42:28;101719.19;;;25.21;32.13
49397;BME280;35615;41.410;2.194;2023-04-08T11:44:57;101716.25;;;25.61;31.34
49397;BME280;35615;41.410;2.194;2023-04-08T11:47:35;101723.44;;;25.43;31.87
49397;BME280;35615;41.410;2.194;2023-04-08T11:50:05;101716.00;;;25.88;31.63
49397;BME280;35615;41.410;2.194;2023-04-08T11:52:48;101712.59;;;25.77;31.50
49397;BME280;35615;41.410;2.194;2023-04-08T11:55:27;101719.38;;;26.04;31.26
49397;BME280;35615;41.410;2.194;2023-04-08T11:58:04;101709.47;;;26.21;30.31
49397;BME280;35615;41.410;2.194;2023-04-08T12:00:32;101708.22;;;26.54;30.45
49397;BME280;35615;41.410;2.194;2023-04-08T12:03:04;101712.53;;;26.63;29.21
49397;BME280;35615;41.410;2.194;2023-04-08T12:05:34;101705.56;;;26.56;28.98
49397;BME280;35615;41.410;2.194;2023-04-08T12:08:02;101711.97;;;26.37;29.64
49397;BME280;35615;41.410;2.194;2023-04-08T12:10:38;101714.41;;;25.73;30.82
49397;BME280;35615;41.410;2.194;2023-04-08T12:13:15;101715.06;;;25.95;30.29
49397;BME280;35615;41.410;2.194;2023-04-08T12:15:46;101708.09;;;25.87;30.27
49397;BME280;35615;41.410;2.194;2023-04-08T12:18:19;101705.25;;;26.03;30.30
49397;BME280;35615;41.410;2.194;2023-04-08T12:20:49;101705.41;;;25.90;29.90
49397;BME280;35615;41.410;2.194;2023-04-08T12:23:17;101709.19;;;26.47;28.98
49397;BME280;35615;41.410;2.194;2023-04-08T12:25:56;101706.66;;;26.37;28.49
49397;BME280;35615;41.410;2.194;2023-04-08T12:28:33;101707.25;;;26.60;28.57
49397;BME280;35615;41.410;2.194;2023-04-08T12:31:07;101713.22;;;26.05;30.01
49397;BME280;35615;41.410;2.194;2023-04-08T12:33:37;101703.38;;;26.13;29.43
49397;BME280;35615;41.410;2.194;2023-04-08T12:36:05;101709.00;;;26.64;29.35
49397;BME280;35615;41.410;2.194;2023-04-08T12:38:45;101696.50;;;25.97;29.65
49397;BME280;35615;41.410;2.194;2023-04-08T12:41:25;101703.25;;;26.24;29.34
49397;BME280;35615;41.410;2.194;2023-04-08T12:47:26;101699.41;;;25.72;29.88
49397;BME280;35615;41.410;2.194;2023-04-08T12:49:56;101700.06;;;25.93;29.40
49397;BME280;35615;41.410;2.194;2023-04-08T12:52:23;101695.06;;;25.61;29.98
49397;BME280;35615;41.410;2.194;2023-04-08T12:54:53;101698.25;;;25.99;29.96
49397;BME280;35615;41.410;2.194;2023-04-08T12:57:23;101708.59;;;26.22;29.61
49397;BME280;35615;41.410;2.194;2023-04-08T13:00:08;101698.03;;;26.19;28.82
49397;BME280;35615;41.410;2.194;2023-04-08T13:02:39;101704.91;;;26.34;28.96
49397;BME280;35615;41.410;2.194;2023-04-08T13:05:10;101709.34;;;26.33;28.98
49397;BME280;35615;41.410;2.194;2023-04-08T13:07:38;101710.25;;;26.31;29.31
49397;BME280;35615;41.410;2.194;2023-04-08T13:10:17;101713.97;;;26.16;28.72
49397;BME280;35615;41.410;2.194;2023-04-08T13:13:07;101712.31;;;26.03;28.68
49397;BME280;35615;41.410;2.194;2023-04-08T13:16:17;101706.00;;;26.15;28.61
49397;BME280;35615;41.410;2.194;2023-04-08T13:19:16;101715.13;;;25.88;29.57
49397;BME280;35615;41.410;2.194;2023-04-08T13:25:00;101712.66;;;25.69;29.26
49397;BME280;35615;41.410;2.194;2023-04-08T13:27:50;101714.41;;;25.73;29.69
49397;BME280;35615;41.410;2.194;2023-04-08T13:30:29;101716.25;;;25.56;30.53
49397;BME280;35615;41.410;2.194;2023-04-08T13:33:09;101718.91;;;25.56;29.86
49397;BME280;35615;41.410;2.194;2023-04-08T13:35:36;101717.22;;;25.46;30.11